sensor_id;sensor_type;location;lat;lon;timestamp;temperature;humidity
34833;DHT22;55941;50.800;4.342;2022-10-23T00:02:15;15.70;99.90
34833;DHT22;55941;50.800;4.342;2022-10-23T00:04:41;15.70;99.90
34833;DHT22;55941;50.800;4.342;2022-10-23T00:07:07;15.70;99.90
34833;DHT22;55941;50.800;4.342;2022-10-23T00:09:32;15.60;99.90
34833;DHT22;55941;50.800;4.342;2022-10-23T00:11:58;15.70;99.90
34833;DHT22;55941;50.800;4.342;2022-10-23T00:14:23;15.70;99.90
34833;DHT22;55941;50.800;4.342;2022-10-23T00:16:49;15.70;99.90
34833;DHT22;55941;50.800;4.342;2022-10-23T00:19:15;15.60;99.90
34833;DHT22;55941;50.800;4.342;2022-10-23T00:21:40;15.70;99.90
34833;DHT22;55941;50.800;4.342;2022-10-23T00:24:06;15.70;99.90
34833;DHT22;55941;50.800;4.342;2022-10-23T00:26:32;15.70;99.90
34833;DHT22;55941;50.800;4.342;2022-10-23T00:28:58;15.80;99.90
34833;DHT22;55941;50.800;4.342;2022-10-23T00:31:24;15.80;99.90
34833;DHT22;55941;50.800;4.342;2022-10-23T00:33:50;15.80;99.90
34833;DHT22;55941;50.800;4.342;2022-10-23T00:36:18;15.90;99.90
34833;DHT22;55941;50.800;4.342;2022-10-23T00:38:44;15.80;99.90
34833;DHT22;55941;50.800;4.342;2022-10-23T00:41:13;15.90;99.90
34833;DHT22;55941;50.800;4.342;2022-10-23T00:43:55;15.90;99.90
34833;DHT22;55941;50.800;4.342;2022-10-23T00:46:21;16.00;99.90
34833;DHT22;55941;50.800;4.342;2022-10-23T00:48:47;16.00;99.90
34833;DHT22;55941;50.800;4.342;2022-10-23T00:51:13;16.00;99.90
34833;DHT22;55941;50.800;4.342;2022-10-23T00:53:38;16.00;99.90
34833;DHT22;55941;50.800;4.342;2022-10-23T00:56:04;16.00;99.90
34833;DHT22;55941;50.800;4.342;2022-10-23T00:58:30;16.10;99.90
34833;DHT22;55941;50.800;4.342;2022-10-23T01:00:55;16.20;99.90
34833;DHT22;55941;50.800;4.342;2022-10-23T01:03:22;16.20;99.90
34833;DHT22;55941;50.800;4.342;2022-10-23T01:05:54;16.20;99.90
34833;DHT22;55941;50.800;4.342;2022-10-23T01:11:09;16.30;99.90
34833;DHT22;55941;50.800;4.342;2022-10-23T01:13:48;16.30;99.90
34833;DHT22;55941;50.800;4.342;2022-10-23T01:16:21;16.30;99.90
34833;DHT22;55941;50.800;4.342;2022-10-23T01:18:50;16.20;99.90
34833;DHT22;55941;50.800;4.342;2022-10-23T01:21:25;16.30;99.90
34833;DHT22;55941;50.800;4.342;2022-10-23T01:28:49;16.40;99.90
34833;DHT22;55941;50.800;4.342;2022-10-23T01:31:19;16.40;99.90
34833;DHT22;55941;50.800;4.342;2022-10-23T01:33:47;16.30;99.90
34833;DHT22;55941;50.800;4.342;2022-10-23T01:36:15;16.40;99.90
34833;DHT22;55941;50.800;4.342;2022-10-23T01:38:43;16.40;99.90
34833;DHT22;55941;50.800;4.342;2022-10-23T01:41:13;16.30;99.90
34833;DHT22;55941;50.800;4.342;2022-10-23T01:43:44;16.30;99.90
34833;DHT22;55941;50.800;4.342;2022-10-23T01:46:11;16.40;99.90
34833;DHT22;55941;50.800;4.342;2022-10-23T01:48:38;16.40;99.90
34833;DHT22;55941;50.800;4.342;2022-10-23T01:51:07;16.40;99.90
34833;DHT22;55941;50.800;4.342;2022-10-23T01:53:35;16.40;99.90
34833;DHT22;55941;50.800;4.342;2022-10-23T01:56:02;16.50;99.90
34833;DHT22;55941;50.800;4.342;2022-10-23T01:58:30;16.50;99.90
34833;DHT22;55941;50.800;4.342;2022-10-23T02:00:57;16.50;99.90
34833;DHT22;55941;50.800;4.342;2022-10-23T02:03:24;16.50;99.90
34833;DHT22;55941;50.800;4.342;2022-10-23T02:05:51;16.60;99.90
34833;DHT22;55941;50.800;4.342;2022-10-23T02:08:16;16.50;99.90
34833;DHT22;55941;50.800;4.342;2022-10-23T02:10:51;16.50;99.90
34833;DHT22;55941;50.800;4.342;2022-10-23T02:13:23;16.50;99.90
34833;DHT22;55941;50.800;4.342;2022-10-23T02:15:52;16.40;99.90
34833;DHT22;55941;50.800;4.342;2022-10-23T02:20:54;16.40;99.90
34833;DHT22;55941;50.800;4.342;2022-10-23T02:23:21;16.50;99.90
34833;DHT22;55941;50.800;4.342;2022-10-23T02:28:16;16.40;99.90
34833;DHT22;55941;50.800;4.342;2022-10-23T02:30:43;16.40;99.90
34833;DHT22;55941;50.800;4.342;2022-10-23T02:33:10;16.40;99.90
34833;DHT22;55941;50.800;4.342;2022-10-23T02:35:36;16.30;99.90
34833;DHT22;55941;50.800;4.342;2022-10-23T02:38:25;16.40;99.90
34833;DHT22;55941;50.800;4.342;2022-10-23T02:40:49;16.40;99.90
34833;DHT22;55941;50.800;4.342;2022-10-23T02:43:26;16.40;99.90
34833;DHT22;55941;50.800;4.342;2022-10-23T02:45:57;16.30;99.90
34833;DHT22;55941;50.800;4.342;2022-10-23T02:48:29;16.40;99.90
34833;DHT22;55941;50.800;4.342;2022-10-23T02:53:36;16.40;99.90
34833;DHT22;55941;50.800;4.342;2022-10-23T02:56:48;16.40;99.90
34833;DHT22;55941;50.800;4.342;2022-10-23T03:01:25;16.40;99.90
34833;DHT22;55941;50.800;4.342;2022-10-23T03:03:52;16.30;99.90
34833;DHT22;55941;50.800;4.342;2022-10-23T03:06:18;16.30;99.90
34833;DHT22;55941;50.800;4.342;2022-10-23T03:08:48;16.30;99.90
34833;DHT22;55941;50.800;4.342;2022-10-23T03:11:16;16.20;99.90
34833;DHT22;55941;50.800;4.342;2022-10-23T03:13:42;16.20;99.90
34833;DHT22;55941;50.800;4.342;2022-10-23T03:16:07;16.30;99.90
34833;DHT22;55941;50.800;4.342;2022-10-23T03:18:33;16.30;99.90
34833;DHT22;55941;50.800;4.342;2022-10-23T03:20:59;16.40;99.90
34833;DHT22;55941;50.800;4.342;2022-10-23T03:23:25;16.40;99.90
34833;DHT22;55941;50.800;4.342;2022-10-23T03:25:51;16.50;99.90
34833;DHT22;55941;50.800;4.342;2022-10-23T03:28:18;16.50;99.90
34833;DHT22;55941;50.800;4.342;2022-10-23T03:30:44;16.40;99.90
34833;DHT22;55941;50.800;4.342;2022-10-23T03:33:09;16.40;99.90
34833;DHT22;55941;50.800;4.342;2022-10-23T03:35:35;16.40;99.90
34833;DHT22;55941;50.800;4.342;2022-10-23T03:38:00;16.50;99.90
34833;DHT22;55941;50.800;4.342;2022-10-23T03:40:26;16.50;99.90
34833;DHT22;55941;50.800;4.342;2022-10-23T03:42:51;16.50;99.90
34833;DHT22;55941;50.800;4.342;2022-10-23T03:45:17;16.40;99.90
34833;DHT22;55941;50.800;4.342;2022-10-23T03:47:42;16.30;99.90
34833;DHT22;55941;50.800;4.342;2022-10-23T03:50:09;16.30;99.90
34833;DHT22;55941;50.800;4.342;2022-10-23T03:52:36;16.30;99.90
34833;DHT22;55941;50.800;4.342;2022-10-23T03:55:02;16.30;99.90
34833;DHT22;55941;50.800;4.342;2022-10-23T03:57:27;16.40;99.90
34833;DHT22;55941;50.800;4.342;2022-10-23T03:59:53;16.50;99.90
34833;DHT22;55941;50.800;4.342;2022-10-23T04:02:19;16.60;99.90
34833;DHT22;55941;50.800;4.342;2022-10-23T04:04:44;16.60;99.90
34833;DHT22;55941;50.800;4.342;2022-10-23T04:07:13;16.70;99.90
34833;DHT22;55941;50.800;4.342;2022-10-23T04:09:39;16.60;99.90
34833;DHT22;55941;50.800;4.342;2022-10-23T04:12:05;16.60;99.90
34833;DHT22;55941;50.800;4.342;2022-10-23T04:14:30;16.50;99.90
34833;DHT22;55941;50.800;4.342;2022-10-23T04:16:56;16.50;99.90
34833;DHT22;55941;50.800;4.342;2022-10-23T04:19:22;16.50;99.90
34833;DHT22;55941;50.800;4.342;2022-10-23T04:21:47;16.40;99.90
34833;DHT22;55941;50.800;4.342;2022-10-23T04:24:13;16.40;99.90
34833;DHT22;55941;50.800;4.342;2022-10-23T04:26:38;16.50;99.90
34833;DHT22;55941;50.800;4.342;2022-10-23T04:29:04;16.50;99.90
34833;DHT22;55941;50.800;4.342;2022-10-23T04:31:29;16.50;99.90
34833;DHT22;55941;50.800;4.342;2022-10-23T04:33:55;16.60;99.90
34833;DHT22;55941;50.800;4.342;2022-10-23T04:36:21;16.60;99.90
34833;DHT22;55941;50.800;4.342;2022-10-23T04:38:46;16.60;99.90
34833;DHT22;55941;50.800;4.342;2022-10-23T04:41:12;16.60;99.90
34833;DHT22;55941;50.800;4.342;2022-10-23T04:43:38;16.60;99.90
34833;DHT22;55941;50.800;4.342;2022-10-23T04:46:03;16.70;99.90
34833;DHT22;55941;50.800;4.342;2022-10-23T04:48:29;16.60;99.90
34833;DHT22;55941;50.800;4.342;2022-10-23T04:50:56;16.70;99.90
34833;DHT22;55941;50.800;4.342;2022-10-23T04:53:22;16.70;99.90
34833;DHT22;55941;50.800;4.342;2022-10-23T04:55:52;16.60;99.90
34833;DHT22;55941;50.800;4.342;2022-10-23T04:58:18;16.60;99.90
34833;DHT22;55941;50.800;4.342;2022-10-23T05:00:44;16.60;99.90
34833;DHT22;55941;50.800;4.342;2022-10-23T05:03:10;16.70;99.90
34833;DHT22;55941;50.800;4.342;2022-10-23T05:05:35;16.70;99.90
34833;DHT22;55941;50.800;4.342;2022-10-23T05:08:02;16.80;99.90
34833;DHT22;55941;50.800;4.342;2022-10-23T05:10:28;16.90;99.90
34833;DHT22;55941;50.800;4.342;2022-10-23T05:12:53;16.80;99.90
34833;DHT22;55941;50.800;4.342;2022-10-23T05:15:19;16.80;99.90
34833;DHT22;55941;50.800;4.342;2022-10-23T05:17:45;16.70;99.90
34833;DHT22;55941;50.800;4.342;2022-10-23T05:20:16;16.70;99.90
34833;DHT22;55941;50.800;4.342;2022-10-23T05:22:42;16.70;99.90
34833;DHT22;55941;50.800;4.342;2022-10-23T05:25:08;16.70;99.90
34833;DHT22;55941;50.800;4.342;2022-10-23T05:27:34;16.60;99.90
34833;DHT22;55941;50.800;4.342;2022-10-23T05:30:00;16.60;99.90
34833;DHT22;55941;50.800;4.342;2022-10-23T05:32:28;16.60;99.90
34833;DHT22;55941;50.800;4.342;2022-10-23T05:34:53;16.60;99.90
34833;DHT22;55941;50.800;4.342;2022-10-23T05:37:20;16.70;99.90
34833;DHT22;55941;50.800;4.342;2022-10-23T05:39:48;16.80;99.90
34833;DHT22;55941;50.800;4.342;2022-10-23T05:42:14;16.80;99.90
34833;DHT22;55941;50.800;4.342;2022-10-23T05:44:39;16.80;99.90
34833;DHT22;55941;50.800;4.342;2022-10-23T05:47:06;16.80;99.90
34833;DHT22;55941;50.800;4.342;2022-10-23T05:49:31;16.80;99.90
34833;DHT22;55941;50.800;4.342;2022-10-23T05:51:57;16.80;99.90
34833;DHT22;55941;50.800;4.342;2022-10-23T05:54:22;16.80;99.90
34833;DHT22;55941;50.800;4.342;2022-10-23T05:56:48;16.80;99.90
34833;DHT22;55941;50.800;4.342;2022-10-23T05:59:14;16.70;99.90
34833;DHT22;55941;50.800;4.342;2022-10-23T06:01:39;16.80;99.90
34833;DHT22;55941;50.800;4.342;2022-10-23T06:04:05;16.70;99.90
34833;DHT22;55941;50.800;4.342;2022-10-23T06:06:31;16.70;99.90
34833;DHT22;55941;50.800;4.342;2022-10-23T06:08:56;16.70;99.90
34833;DHT22;55941;50.800;4.342;2022-10-23T06:11:22;16.70;99.90
34833;DHT22;55941;50.800;4.342;2022-10-23T06:13:48;16.80;99.90
34833;DHT22;55941;50.800;4.342;2022-10-23T06:16:15;16.70;99.90
34833;DHT22;55941;50.800;4.342;2022-10-23T06:18:41;16.60;99.90
34833;DHT22;55941;50.800;4.342;2022-10-23T06:21:06;16.60;99.90
34833;DHT22;55941;50.800;4.342;2022-10-23T06:23:32;16.70;99.90
34833;DHT22;55941;50.800;4.342;2022-10-23T06:25:58;16.70;99.90
34833;DHT22;55941;50.800;4.342;2022-10-23T06:28:24;16.70;99.90
34833;DHT22;55941;50.800;4.342;2022-10-23T06:30:50;16.60;99.90
34833;DHT22;55941;50.800;4.342;2022-10-23T06:33:15;16.60;99.90
34833;DHT22;55941;50.800;4.342;2022-10-23T06:35:41;16.40;99.90
34833;DHT22;55941;50.800;4.342;2022-10-23T06:38:07;16.50;99.90
34833;DHT22;55941;50.800;4.342;2022-10-23T06:40:35;16.40;99.90
34833;DHT22;55941;50.800;4.342;2022-10-23T06:43:00;16.50;99.90
34833;DHT22;55941;50.800;4.342;2022-10-23T06:45:26;16.40;99.90
34833;DHT22;55941;50.800;4.342;2022-10-23T06:47:54;16.40;99.90
34833;DHT22;55941;50.800;4.342;2022-10-23T06:50:20;16.40;99.90
34833;DHT22;55941;50.800;4.342;2022-10-23T06:52:46;16.40;99.90
34833;DHT22;55941;50.800;4.342;2022-10-23T06:55:12;16.50;99.90
34833;DHT22;55941;50.800;4.342;2022-10-23T06:57:37;16.60;99.90
34833;DHT22;55941;50.800;4.342;2022-10-23T07:00:05;16.70;99.90
34833;DHT22;55941;50.800;4.342;2022-10-23T07:02:31;16.80;99.90
34833;DHT22;55941;50.800;4.342;2022-10-23T07:04:56;16.80;99.90
34833;DHT22;55941;50.800;4.342;2022-10-23T07:07:22;16.80;99.90
34833;DHT22;55941;50.800;4.342;2022-10-23T07:09:50;16.80;99.90
34833;DHT22;55941;50.800;4.342;2022-10-23T07:12:18;16.80;99.90
34833;DHT22;55941;50.800;4.342;2022-10-23T07:14:44;16.80;99.90
34833;DHT22;55941;50.800;4.342;2022-10-23T07:17:15;16.80;99.90
34833;DHT22;55941;50.800;4.342;2022-10-23T07:19:41;16.80;99.90
34833;DHT22;55941;50.800;4.342;2022-10-23T07:22:06;16.90;99.90
34833;DHT22;55941;50.800;4.342;2022-10-23T07:24:32;16.80;99.90
34833;DHT22;55941;50.800;4.342;2022-10-23T07:27:02;16.90;99.90
34833;DHT22;55941;50.800;4.342;2022-10-23T07:29:28;16.90;99.90
34833;DHT22;55941;50.800;4.342;2022-10-23T07:31:54;16.90;99.90
34833;DHT22;55941;50.800;4.342;2022-10-23T07:34:19;17.00;99.90
34833;DHT22;55941;50.800;4.342;2022-10-23T07:36:45;17.20;99.90
34833;DHT22;55941;50.800;4.342;2022-10-23T07:41:39;17.20;99.90
34833;DHT22;55941;50.800;4.342;2022-10-23T07:44:05;17.20;99.90
34833;DHT22;55941;50.800;4.342;2022-10-23T07:46:31;17.30;99.90
34833;DHT22;55941;50.800;4.342;2022-10-23T07:48:56;17.30;99.90
34833;DHT22;55941;50.800;4.342;2022-10-23T07:51:22;17.40;99.90
34833;DHT22;55941;50.800;4.342;2022-10-23T07:53:48;17.50;99.90
34833;DHT22;55941;50.800;4.342;2022-10-23T07:56:19;17.40;99.90
34833;DHT22;55941;50.800;4.342;2022-10-23T07:58:45;17.50;99.90
34833;DHT22;55941;50.800;4.342;2022-10-23T08:01:12;17.60;99.90
34833;DHT22;55941;50.800;4.342;2022-10-23T08:03:40;17.60;99.90
34833;DHT22;55941;50.800;4.342;2022-10-23T08:06:06;17.60;99.90
34833;DHT22;55941;50.800;4.342;2022-10-23T08:08:32;17.60;99.90
34833;DHT22;55941;50.800;4.342;2022-10-23T08:10:58;17.60;99.90
34833;DHT22;55941;50.800;4.342;2022-10-23T08:13:23;17.60;99.90
34833;DHT22;55941;50.800;4.342;2022-10-23T08:15:49;17.50;99.90
34833;DHT22;55941;50.800;4.342;2022-10-23T08:18:15;17.60;99.90
34833;DHT22;55941;50.800;4.342;2022-10-23T08:20:42;17.70;99.90
34833;DHT22;55941;50.800;4.342;2022-10-23T08:23:08;17.70;99.90
34833;DHT22;55941;50.800;4.342;2022-10-23T08:25:34;17.80;99.90
34833;DHT22;55941;50.800;4.342;2022-10-23T08:27:59;17.90;99.90
34833;DHT22;55941;50.800;4.342;2022-10-23T08:30:25;17.90;99.90
34833;DHT22;55941;50.800;4.342;2022-10-23T08:32:51;17.80;99.90
34833;DHT22;55941;50.800;4.342;2022-10-23T08:35:17;17.80;99.90
34833;DHT22;55941;50.800;4.342;2022-10-23T08:37:42;17.80;99.90
34833;DHT22;55941;50.800;4.342;2022-10-23T08:40:13;17.90;99.90
34833;DHT22;55941;50.800;4.342;2022-10-23T08:42:38;17.90;99.90
34833;DHT22;55941;50.800;4.342;2022-10-23T08:45:06;17.80;99.90
34833;DHT22;55941;50.800;4.342;2022-10-23T08:47:34;17.80;99.90
34833;DHT22;55941;50.800;4.342;2022-10-23T08:50:05;17.90;99.90
34833;DHT22;55941;50.800;4.342;2022-10-23T08:57:32;18.00;99.90
34833;DHT22;55941;50.800;4.342;2022-10-23T09:00:07;18.00;99.90
34833;DHT22;55941;50.800;4.342;2022-10-23T09:02:37;18.00;99.90
34833;DHT22;55941;50.800;4.342;2022-10-23T09:05:05;18.10;99.90
34833;DHT22;55941;50.800;4.342;2022-10-23T09:07:39;18.10;99.90
34833;DHT22;55941;50.800;4.342;2022-10-23T09:12:47;18.00;99.90
34833;DHT22;55941;50.800;4.342;2022-10-23T09:15:15;18.00;99.90
34833;DHT22;55941;50.800;4.342;2022-10-23T09:17:42;18.00;99.90
34833;DHT22;55941;50.800;4.342;2022-10-23T09:20:13;18.10;99.90
34833;DHT22;55941;50.800;4.342;2022-10-23T09:22:41;18.10;99.90
34833;DHT22;55941;50.800;4.342;2022-10-23T09:25:10;18.30;99.90
34833;DHT22;55941;50.800;4.342;2022-10-23T09:27:36;18.30;99.90
34833;DHT22;55941;50.800;4.342;2022-10-23T09:30:02;18.30;99.90
34833;DHT22;55941;50.800;4.342;2022-10-23T09:32:32;18.40;99.90
34833;DHT22;55941;50.800;4.342;2022-10-23T09:34:58;18.40;99.90
34833;DHT22;55941;50.800;4.342;2022-10-23T09:37:28;18.40;99.90
34833;DHT22;55941;50.800;4.342;2022-10-23T09:40:13;18.50;99.90
34833;DHT22;55941;50.800;4.342;2022-10-23T09:42:49;18.50;99.90
34833;DHT22;55941;50.800;4.342;2022-10-23T09:45:29;18.60;99.90
34833;DHT22;55941;50.800;4.342;2022-10-23T09:48:10;18.70;99.90
34833;DHT22;55941;50.800;4.342;2022-10-23T09:50:36;18.70;99.90
34833;DHT22;55941;50.800;4.342;2022-10-23T09:53:02;18.80;99.90
34833;DHT22;55941;50.800;4.342;2022-10-23T09:55:27;18.80;99.90
34833;DHT22;55941;50.800;4.342;2022-10-23T09:57:53;18.90;99.90
34833;DHT22;55941;50.800;4.342;2022-10-23T10:00:20;19.00;99.90
34833;DHT22;55941;50.800;4.342;2022-10-23T10:03:20;19.10;99.90
34833;DHT22;55941;50.800;4.342;2022-10-23T10:05:39;19.20;99.90
34833;DHT22;55941;50.800;4.342;2022-10-23T10:10:35;19.40;99.90
34833;DHT22;55941;50.800;4.342;2022-10-23T10:13:03;19.40;99.90
34833;DHT22;55941;50.800;4.342;2022-10-23T10:15:41;19.40;99.90
34833;DHT22;55941;50.800;4.342;2022-10-23T10:36:54;19.90;99.90
34833;DHT22;55941;50.800;4.342;2022-10-23T10:44:37;20.00;99.90
34833;DHT22;55941;50.800;4.342;2022-10-23T10:49:49;20.20;99.90
34833;DHT22;55941;50.800;4.342;2022-10-23T10:52:21;20.10;99.90
34833;DHT22;55941;50.800;4.342;2022-10-23T10:59:57;20.20;99.90
34833;DHT22;55941;50.800;4.342;2022-10-23T11:04:55;20.30;99.90
34833;DHT22;55941;50.800;4.342;2022-10-23T11:07:22;20.30;99.90
34833;DHT22;55941;50.800;4.342;2022-10-23T11:09:49;20.30;99.90
34833;DHT22;55941;50.800;4.342;2022-10-23T11:12:22;20.50;99.90
34833;DHT22;55941;50.800;4.342;2022-10-23T11:14:49;20.50;99.90
34833;DHT22;55941;50.800;4.342;2022-10-23T11:17:24;20.60;99.90
34833;DHT22;55941;50.800;4.342;2022-10-23T11:22:43;20.70;99.90
34833;DHT22;55941;50.800;4.342;2022-10-23T11:28:17;21.00;99.90
34833;DHT22;55941;50.800;4.342;2022-10-23T11:36:06;21.20;99.90
34833;DHT22;55941;50.800;4.342;2022-10-23T11:38:38;21.30;99.90
34833;DHT22;55941;50.800;4.342;2022-10-23T11:41:06;21.50;99.90
34833;DHT22;55941;50.800;4.342;2022-10-23T11:43:48;21.50;99.90
34833;DHT22;55941;50.800;4.342;2022-10-23T11:46:27;21.50;99.90
34833;DHT22;55941;50.800;4.342;2022-10-23T11:48:54;21.60;99.90
34833;DHT22;55941;50.800;4.342;2022-10-23T11:57:21;21.70;99.90
34833;DHT22;55941;50.800;4.342;2022-10-23T12:04:51;22.10;99.90
34833;DHT22;55941;50.800;4.342;2022-10-23T12:07:22;22.20;99.90
34833;DHT22;55941;50.800;4.342;2022-10-23T12:09:51;22.20;99.90
34833;DHT22;55941;50.800;4.342;2022-10-23T12:14:50;22.30;99.90
34833;DHT22;55941;50.800;4.342;2022-10-23T12:19:50;22.20;99.90
34833;DHT22;55941;50.800;4.342;2022-10-23T12:25:04;22.60;99.90
34833;DHT22;55941;50.800;4.342;2022-10-23T12:33:22;22.20;99.90
34833;DHT22;55941;50.800;4.342;2022-10-23T12:35:53;22.30;99.90
34833;DHT22;55941;50.800;4.342;2022-10-23T12:40:45;22.40;99.90
34833;DHT22;55941;50.800;4.342;2022-10-23T12:43:19;22.60;99.90
34833;DHT22;55941;50.800;4.342;2022-10-23T12:45:45;22.80;99.90
34833;DHT22;55941;50.800;4.342;2022-10-23T12:48:18;22.90;99.90
34833;DHT22;55941;50.800;4.342;2022-10-23T12:50:53;23.00;99.90
34833;DHT22;55941;50.800;4.342;2022-10-23T12:53:20;22.90;99.90
34833;DHT22;55941;50.800;4.342;2022-10-23T13:00:51;23.10;99.90
34833;DHT22;55941;50.800;4.342;2022-10-23T13:03:18;23.20;99.90
34833;DHT22;55941;50.800;4.342;2022-10-23T13:05:44;23.40;99.90
34833;DHT22;55941;50.800;4.342;2022-10-23T13:08:10;23.70;99.90
34833;DHT22;55941;50.800;4.342;2022-10-23T13:10:35;23.70;99.90
34833;DHT22;55941;50.800;4.342;2022-10-23T13:13:02;23.50;99.90
34833;DHT22;55941;50.800;4.342;2022-10-23T13:15:35;23.20;99.90
34833;DHT22;55941;50.800;4.342;2022-10-23T13:18:01;23.40;99.90
34833;DHT22;55941;50.800;4.342;2022-10-23T13:20:37;23.40;99.90
34833;DHT22;55941;50.800;4.342;2022-10-23T13:23:19;23.30;99.90
34833;DHT22;55941;50.800;4.342;2022-10-23T13:25:54;23.10;99.90
34833;DHT22;55941;50.800;4.342;2022-10-23T13:30:56;22.80;99.90
34833;DHT22;55941;50.800;4.342;2022-10-23T13:33:23;22.70;99.90
34833;DHT22;55941;50.800;4.342;2022-10-23T13:35:55;22.60;99.90
34833;DHT22;55941;50.800;4.342;2022-10-23T13:38:29;22.60;99.90
34833;DHT22;55941;50.800;4.342;2022-10-23T13:40:55;22.70;99.90
34833;DHT22;55941;50.800;4.342;2022-10-23T13:43:22;22.60;99.90
34833;DHT22;55941;50.800;4.342;2022-10-23T13:45:49;22.60;99.90
34833;DHT22;55941;50.800;4.342;2022-10-23T13:48:14;22.60;99.90
34833;DHT22;55941;50.800;4.342;2022-10-23T13:50:40;22.40;99.90
34833;DHT22;55941;50.800;4.342;2022-10-23T13:53:08;22.50;99.90
34833;DHT22;55941;50.800;4.342;2022-10-23T13:55:35;22.50;99.90
34833;DHT22;55941;50.800;4.342;2022-10-23T13:58:03;22.50;99.90
34833;DHT22;55941;50.800;4.342;2022-10-23T14:00:28;22.50;99.90
34833;DHT22;55941;50.800;4.342;2022-10-23T14:02:54;22.50;99.90
34833;DHT22;55941;50.800;4.342;2022-10-23T14:05:20;22.50;99.90
34833;DHT22;55941;50.800;4.342;2022-10-23T14:07:45;22.50;99.90
34833;DHT22;55941;50.800;4.342;2022-10-23T14:10:11;22.60;99.90
34833;DHT22;55941;50.800;4.342;2022-10-23T14:12:40;22.60;99.90
34833;DHT22;55941;50.800;4.342;2022-10-23T14:15:06;22.70;99.90
34833;DHT22;55941;50.800;4.342;2022-10-23T14:17:32;22.70;99.90
34833;DHT22;55941;50.800;4.342;2022-10-23T14:19:59;22.70;99.90
34833;DHT22;55941;50.800;4.342;2022-10-23T14:22:25;22.90;99.90
34833;DHT22;55941;50.800;4.342;2022-10-23T14:24:51;22.70;99.90
34833;DHT22;55941;50.800;4.342;2022-10-23T14:27:17;22.60;99.90
34833;DHT22;55941;50.800;4.342;2022-10-23T14:29:43;22.70;99.90
34833;DHT22;55941;50.800;4.342;2022-10-23T14:32:09;22.80;99.90
34833;DHT22;55941;50.800;4.342;2022-10-23T14:34:34;22.60;99.90
34833;DHT22;55941;50.800;4.342;2022-10-23T14:37:00;22.50;99.90
34833;DHT22;55941;50.800;4.342;2022-10-23T14:39:27;22.60;99.90
34833;DHT22;55941;50.800;4.342;2022-10-23T14:41:52;22.30;99.90
34833;DHT22;55941;50.800;4.342;2022-10-23T14:44:18;22.20;99.90
34833;DHT22;55941;50.800;4.342;2022-10-23T14:46:43;22.10;99.90
34833;DHT22;55941;50.800;4.342;2022-10-23T14:49:09;22.20;99.90
34833;DHT22;55941;50.800;4.342;2022-10-23T14:51:34;22.20;99.90
34833;DHT22;55941;50.800;4.342;2022-10-23T14:54:01;22.20;99.90
34833;DHT22;55941;50.800;4.342;2022-10-23T14:56:28;22.20;99.90
34833;DHT22;55941;50.800;4.342;2022-10-23T14:58:54;22.00;99.90
34833;DHT22;55941;50.800;4.342;2022-10-23T15:01:19;22.00;99.90
34833;DHT22;55941;50.800;4.342;2022-10-23T15:03:45;22.00;99.90
34833;DHT22;55941;50.800;4.342;2022-10-23T15:06:11;21.70;99.90
34833;DHT22;55941;50.800;4.342;2022-10-23T15:08:37;21.60;99.90
34833;DHT22;55941;50.800;4.342;2022-10-23T15:11:03;21.60;99.90
34833;DHT22;55941;50.800;4.342;2022-10-23T15:13:29;21.60;99.90
34833;DHT22;55941;50.800;4.342;2022-10-23T15:16:02;21.50;99.90
34833;DHT22;55941;50.800;4.342;2022-10-23T15:18:27;21.60;99.90
34833;DHT22;55941;50.800;4.342;2022-10-23T15:20:54;21.50;99.90
34833;DHT22;55941;50.800;4.342;2022-10-23T15:23:19;21.50;99.90
34833;DHT22;55941;50.800;4.342;2022-10-23T15:25:53;21.60;99.90
34833;DHT22;55941;50.800;4.342;2022-10-23T15:28:18;21.70;99.90
34833;DHT22;55941;50.800;4.342;2022-10-23T15:30:45;21.60;99.90
34833;DHT22;55941;50.800;4.342;2022-10-23T15:33:10;21.60;99.90
34833;DHT22;55941;50.800;4.342;2022-10-23T15:35:36;21.50;99.90
34833;DHT22;55941;50.800;4.342;2022-10-23T15:38:02;21.50;99.90
34833;DHT22;55941;50.800;4.342;2022-10-23T15:40:27;21.50;99.90
34833;DHT22;55941;50.800;4.342;2022-10-23T15:42:53;21.50;99.90
34833;DHT22;55941;50.800;4.342;2022-10-23T15:45:18;21.60;99.90
34833;DHT22;55941;50.800;4.342;2022-10-23T15:47:44;21.40;99.90
34833;DHT22;55941;50.800;4.342;2022-10-23T15:50:10;21.40;99.90
34833;DHT22;55941;50.800;4.342;2022-10-23T15:52:35;21.30;99.90
34833;DHT22;55941;50.800;4.342;2022-10-23T15:55:01;21.30;99.90
34833;DHT22;55941;50.800;4.342;2022-10-23T15:57:27;21.40;99.90
34833;DHT22;55941;50.800;4.342;2022-10-23T15:59:52;21.40;99.90
34833;DHT22;55941;50.800;4.342;2022-10-23T16:02:18;21.20;99.90
34833;DHT22;55941;50.800;4.342;2022-10-23T16:04:44;21.20;99.90
34833;DHT22;55941;50.800;4.342;2022-10-23T16:07:10;21.20;99.90
34833;DHT22;55941;50.800;4.342;2022-10-23T16:09:35;21.00;99.90
34833;DHT22;55941;50.800;4.342;2022-10-23T16:12:01;20.90;99.90
34833;DHT22;55941;50.800;4.342;2022-10-23T16:14:27;21.00;99.90
34833;DHT22;55941;50.800;4.342;2022-10-23T16:16:53;20.90;99.90
34833;DHT22;55941;50.800;4.342;2022-10-23T16:19:18;20.80;99.90
34833;DHT22;55941;50.800;4.342;2022-10-23T16:21:44;20.80;99.90
34833;DHT22;55941;50.800;4.342;2022-10-23T16:24:09;20.50;99.90
34833;DHT22;55941;50.800;4.342;2022-10-23T16:26:35;20.50;99.90
34833;DHT22;55941;50.800;4.342;2022-10-23T16:29:03;20.50;99.90
34833;DHT22;55941;50.800;4.342;2022-10-23T16:31:29;20.50;99.90
34833;DHT22;55941;50.800;4.342;2022-10-23T16:33:58;20.50;99.90
34833;DHT22;55941;50.800;4.342;2022-10-23T16:36:25;20.50;99.90
34833;DHT22;55941;50.800;4.342;2022-10-23T16:38:50;20.50;99.90
34833;DHT22;55941;50.800;4.342;2022-10-23T16:41:16;20.50;99.90
34833;DHT22;55941;50.800;4.342;2022-10-23T16:43:41;20.40;99.90
34833;DHT22;55941;50.800;4.342;2022-10-23T16:46:10;20.30;99.90
34833;DHT22;55941;50.800;4.342;2022-10-23T16:48:36;20.40;99.90
34833;DHT22;55941;50.800;4.342;2022-10-23T16:51:06;20.40;99.90
34833;DHT22;55941;50.800;4.342;2022-10-23T16:53:32;20.30;99.90
34833;DHT22;55941;50.800;4.342;2022-10-23T16:55:57;20.30;99.90
34833;DHT22;55941;50.800;4.342;2022-10-23T16:58:23;20.40;99.90
34833;DHT22;55941;50.800;4.342;2022-10-23T17:01:01;20.10;99.90
34833;DHT22;55941;50.800;4.342;2022-10-23T17:03:28;20.20;99.90
34833;DHT22;55941;50.800;4.342;2022-10-23T17:05:58;20.30;99.90
34833;DHT22;55941;50.800;4.342;2022-10-23T17:08:24;20.20;99.90
34833;DHT22;55941;50.800;4.342;2022-10-23T17:11:01;20.30;99.90
34833;DHT22;55941;50.800;4.342;2022-10-23T17:13:27;20.30;99.90
34833;DHT22;55941;50.800;4.342;2022-10-23T17:16:01;20.20;99.90
34833;DHT22;55941;50.800;4.342;2022-10-23T17:18:26;20.30;99.90
34833;DHT22;55941;50.800;4.342;2022-10-23T17:20:55;20.30;99.90
34833;DHT22;55941;50.800;4.342;2022-10-23T17:23:21;20.20;99.90